Terminal Aerodrome Forecast
Issued by NWS Miami, FL

Home | Current Version | Previous Version | Text Only | Print | Product List | Glossary On
Versions: 1 2 3 4 5 6 7 8 9 10 11 12 13 14 15 16 17 18 19 20 21 22 23 24 25 26 27 28 29 30 31 32 33 34 35 36 37 38 39 40 41 42 43 44 45
000
FTUS42 KMFL 222337
TAFPBI
TAF
KPBI 222337Z 2300/2324 32006KT P6SM -RA FEW040 SCT060 BKN160
     FM230100 VRB03KT P6SM VCSH SCT030 BKN120 BKN200
     FM231400 12008KT P6SM VCSH SCT030 BKN250
     FM231800 14011KT P6SM VCTS SCT030CB SCT250=

USA.gov is the U.S. government's official web portal to all federal, state and local government web resources and services.